VCP38S OPKC-OEMA
Flight info
| Callsign | VCP38S |
|---|---|
| Flight time | 3h 46m |
| Altitude | 32000 |
| Route | MELOM1F/25L MELOM A454 VUSET T500 MCT T506 TULBU/N0483F380 M628 PEKEM/N0478F280 M628 MIGMA M550 MEVDO Y511 ELONU |
| Aircraft | A346/H-SDE2E3FGHIJ3J4J5M1RWXY/LB1D1 |
Departure
| Time | 2026-04-25 16:39 |
|---|---|
| Airport | Jinnah International Airport (OPKC) |
Arrival
| Time | 2026-04-25 20:25 |
|---|---|
| Airport | Prince Mohammad Bin Abdulaziz Airport (OEMA) |
| Time | Latitude | Longitude | Altitude | Speed | Heading |
|---|---|---|---|---|---|
| 2026-04-25 16:10 | 24.90327 | 67.16908 | 97 ft | 0 kts | 165° |
| 2026-04-25 16:23 | 24.90332 | 67.16907 | 97 ft | 2 kts | 165° |
| 2026-04-25 16:24 | 24.90347 | 67.16902 | 97 ft | 2 kts | 164° |
| 2026-04-25 16:24 | 24.90356 | 67.16899 | 97 ft | 1 kts | 164° |
| 2026-04-25 16:24 | 24.90370 | 67.16894 | 97 ft | 2 kts | 150° |
| 2026-04-25 16:24 | 24.90382 | 67.16884 | 97 ft | 2 kts | 131° |
| 2026-04-25 16:25 | 24.90390 | 67.16871 | 97 ft | 2 kts | 116° |
| 2026-04-25 16:25 | 24.90394 | 67.16860 | 97 ft | 2 kts | 106° |
| 2026-04-25 16:25 | 24.90397 | 67.16839 | 97 ft | 2 kts | 85° |
| 2026-04-25 16:25 | 24.90395 | 67.16827 | 97 ft | 0 kts | 73° |
| 2026-04-25 16:26 | 24.90394 | 67.16822 | 97 ft | 0 kts | 72° |
| 2026-04-25 16:26 | 24.90394 | 67.16823 | 97 ft | 0 kts | 72° |
| 2026-04-25 16:28 | 24.90395 | 67.16825 | 97 ft | 1 kts | 72° |
| 2026-04-25 16:28 | 24.90402 | 67.16853 | 97 ft | 5 kts | 72° |
| 2026-04-25 16:28 | 24.90413 | 67.16889 | 97 ft | 4 kts | 72° |
| 2026-04-25 16:28 | 24.90425 | 67.16929 | 97 ft | 5 kts | 72° |
| 2026-04-25 16:29 | 24.90434 | 67.16960 | 97 ft | 4 kts | 72° |
| 2026-04-25 16:29 | 24.90442 | 67.16988 | 97 ft | 4 kts | 72° |
| 2026-04-25 16:29 | 24.90457 | 67.17023 | 97 ft | 4 kts | 47° |
| 2026-04-25 16:29 | 24.90468 | 67.17030 | 97 ft | 0 kts | 23° |
| 2026-04-25 16:30 | 24.90470 | 67.17031 | 97 ft | 0 kts | 22° |
| 2026-04-25 16:30 | 24.90474 | 67.17033 | 97 ft | 1 kts | 13° |
| 2026-04-25 16:30 | 24.90475 | 67.17033 | 97 ft | 0 kts | 12° |
| 2026-04-25 16:31 | 24.90482 | 67.17034 | 97 ft | 2 kts | 8° |
| 2026-04-25 16:31 | 24.90511 | 67.17036 | 97 ft | 6 kts | 6° |
| 2026-04-25 16:31 | 24.90559 | 67.17065 | 98 ft | 9 kts | 54° |
| 2026-04-25 16:32 | 24.90589 | 67.17141 | 99 ft | 12 kts | 73° |
| 2026-04-25 16:32 | 24.90615 | 67.17239 | 100 ft | 14 kts | 73° |
| 2026-04-25 16:32 | 24.90640 | 67.17334 | 103 ft | 11 kts | 73° |
| 2026-04-25 16:32 | 24.90677 | 67.17412 | 103 ft | 11 kts | 47° |
| 2026-04-25 16:33 | 24.90727 | 67.17452 | 104 ft | 6 kts | 32° |
| 2026-04-25 16:33 | 24.90738 | 67.17459 | 105 ft | 0 kts | 31° |
| 2026-04-25 16:36 | 24.90747 | 67.17465 | 105 ft | 2 kts | 31° |
| 2026-04-25 16:37 | 24.90771 | 67.17481 | 105 ft | 5 kts | 28° |
| 2026-04-25 16:37 | 24.90811 | 67.17493 | 106 ft | 7 kts | 5° |
| 2026-04-25 16:37 | 24.90856 | 67.17488 | 106 ft | 3 kts | 319° |
| 2026-04-25 16:37 | 24.90862 | 67.17453 | 106 ft | 4 kts | 265° |
| 2026-04-25 16:38 | 24.90859 | 67.17435 | 106 ft | 0 kts | 259° |
| 2026-04-25 16:38 | 24.90857 | 67.17425 | 106 ft | 4 kts | 257° |
| 2026-04-25 16:38 | 24.90788 | 67.17139 | 102 ft | 75 kts | 254° |
| 2026-04-25 16:38 | 24.90589 | 67.16360 | 94 ft | 136 kts | 254° |
| 2026-04-25 16:39 | 24.90277 | 67.15164 | 174 ft | 177 kts | 251° |
| 2026-04-25 16:39 | 24.89912 | 67.13935 | 835 ft | 168 kts | 250° |
| 2026-04-25 16:39 | 24.89449 | 67.12743 | 1362 ft | 174 kts | 245° |
| 2026-04-25 16:39 | 24.88727 | 67.11655 | 1888 ft | 179 kts | 234° |
| 2026-04-25 16:40 | 24.87893 | 67.10656 | 2390 ft | 178 kts | 229° |
| 2026-04-25 16:40 | 24.87013 | 67.09644 | 2689 ft | 190 kts | 230° |
| 2026-04-25 16:40 | 24.86050 | 67.08561 | 2957 ft | 205 kts | 229° |
| 2026-04-25 16:40 | 24.85004 | 67.07402 | 3234 ft | 220 kts | 228° |
| 2026-04-25 16:41 | 24.83872 | 67.06149 | 3486 ft | 240 kts | 228° |
| 2026-04-25 16:41 | 24.83094 | 67.05290 | 3820 ft | 245 kts | 227° |
| 2026-04-25 16:41 | 24.80263 | 67.02172 | 5262 ft | 252 kts | 226° |
| 2026-04-25 16:42 | 24.79015 | 67.00790 | 5871 ft | 255 kts | 229° |
| 2026-04-25 16:42 | 24.78134 | 66.99136 | 6407 ft | 258 kts | 257° |
| 2026-04-25 16:42 | 24.78081 | 66.97134 | 6796 ft | 270 kts | 278° |
| 2026-04-25 16:42 | 24.78346 | 66.95042 | 7184 ft | 284 kts | 278° |
| 2026-04-25 16:43 | 24.78612 | 66.92855 | 7749 ft | 290 kts | 278° |
| 2026-04-25 16:43 | 24.78860 | 66.90672 | 8355 ft | 293 kts | 278° |
| 2026-04-25 16:43 | 24.79106 | 66.88412 | 8954 ft | 298 kts | 278° |
| 2026-04-25 16:43 | 24.79348 | 66.86155 | 9542 ft | 302 kts | 278° |
| 2026-04-25 16:44 | 24.79592 | 66.83866 | 10131 ft | 306 kts | 278° |
| 2026-04-25 16:44 | 24.79913 | 66.81484 | 10460 ft | 320 kts | 288° |
| 2026-04-25 16:44 | 24.80846 | 66.79243 | 10728 ft | 331 kts | 307° |
| 2026-04-25 16:44 | 24.82417 | 66.77347 | 11000 ft | 344 kts | 319° |
| 2026-04-25 16:45 | 24.84224 | 66.75485 | 11275 ft | 360 kts | 319° |
| 2026-04-25 16:45 | 24.86086 | 66.73572 | 11536 ft | 375 kts | 319° |
| 2026-04-25 16:45 | 24.88009 | 66.71575 | 11861 ft | 388 kts | 319° |
| 2026-04-25 16:45 | 24.89971 | 66.69519 | 12426 ft | 393 kts | 319° |
| 2026-04-25 16:46 | 24.91948 | 66.67436 | 13089 ft | 395 kts | 319° |
| 2026-04-25 16:46 | 24.93946 | 66.65329 | 13704 ft | 399 kts | 319° |
| 2026-04-25 16:46 | 24.95962 | 66.63203 | 14326 ft | 402 kts | 318° |
| 2026-04-25 16:46 | 24.97297 | 66.61793 | 14705 ft | 405 kts | 318° |
| 2026-04-25 16:47 | 25.00052 | 66.58881 | 15478 ft | 410 kts | 318° |
| 2026-04-25 16:47 | 25.02093 | 66.56721 | 16040 ft | 414 kts | 317° |
| 2026-04-25 16:47 | 25.04125 | 66.54454 | 16567 ft | 419 kts | 311° |
| 2026-04-25 16:47 | 25.05762 | 66.51771 | 17110 ft | 424 kts | 298° |
| 2026-04-25 16:48 | 25.06877 | 66.48765 | 17647 ft | 428 kts | 287° |
| 2026-04-25 16:48 | 25.07617 | 66.45570 | 18201 ft | 430 kts | 284° |
| 2026-04-25 16:48 | 25.08300 | 66.42397 | 18755 ft | 433 kts | 284° |
| 2026-04-25 16:48 | 25.08996 | 66.39141 | 19255 ft | 437 kts | 284° |
| 2026-04-25 16:49 | 25.09681 | 66.35867 | 19767 ft | 440 kts | 281° |
| 2026-04-25 16:49 | 25.09792 | 66.32513 | 20193 ft | 444 kts | 264° |
| 2026-04-25 16:49 | 25.09359 | 66.29146 | 20750 ft | 446 kts | 261° |
| 2026-04-25 16:49 | 25.08826 | 66.25749 | 21233 ft | 450 kts | 260° |
| 2026-04-25 16:50 | 25.08309 | 66.22379 | 21691 ft | 453 kts | 261° |
| 2026-04-25 16:50 | 25.07813 | 66.18938 | 22135 ft | 457 kts | 261° |
| 2026-04-25 16:50 | 25.07341 | 66.15465 | 22587 ft | 460 kts | 262° |
| 2026-04-25 16:50 | 25.06882 | 66.11961 | 23049 ft | 463 kts | 262° |
| 2026-04-25 16:51 | 25.06431 | 66.08431 | 23533 ft | 466 kts | 262° |
| 2026-04-25 16:51 | 25.05988 | 66.04926 | 24016 ft | 468 kts | 262° |
| 2026-04-25 16:51 | 25.05543 | 66.01365 | 24485 ft | 471 kts | 263° |
| 2026-04-25 16:51 | 25.05243 | 65.98961 | 24797 ft | 473 kts | 263° |
| 2026-04-25 16:52 | 25.04647 | 65.94180 | 25397 ft | 477 kts | 263° |
| 2026-04-25 16:52 | 25.04197 | 65.90559 | 25861 ft | 480 kts | 263° |
| 2026-04-25 16:52 | 25.03743 | 65.86922 | 26329 ft | 482 kts | 263° |
| 2026-04-25 16:52 | 25.03286 | 65.83264 | 26785 ft | 484 kts | 263° |
| 2026-04-25 16:53 | 25.02366 | 65.75914 | 27693 ft | 489 kts | 263° |
| 2026-04-25 16:53 | 25.01897 | 65.72176 | 28133 ft | 491 kts | 263° |
| 2026-04-25 16:53 | 25.01430 | 65.68470 | 28619 ft | 492 kts | 263° |
| 2026-04-25 16:54 | 25.00961 | 65.64761 | 29251 ft | 490 kts | 264° |
| 2026-04-25 16:54 | 25.00491 | 65.61043 | 29899 ft | 486 kts | 263° |
| 2026-04-25 16:54 | 25.00028 | 65.57392 | 30525 ft | 483 kts | 264° |
| 2026-04-25 16:54 | 24.99564 | 65.53725 | 31139 ft | 480 kts | 263° |
| 2026-04-25 16:55 | 24.99104 | 65.50103 | 31721 ft | 477 kts | 263° |
| 2026-04-25 16:55 | 24.98641 | 65.46477 | 32303 ft | 474 kts | 263° |
| 2026-04-25 16:55 | 24.98169 | 65.42786 | 32915 ft | 471 kts | 264° |
| 2026-04-25 16:55 | 24.97714 | 65.39243 | 33500 ft | 467 kts | 264° |
| 2026-04-25 16:56 | 24.97262 | 65.35709 | 34050 ft | 464 kts | 264° |
| 2026-04-25 16:56 | 24.96808 | 65.32179 | 34477 ft | 464 kts | 263° |
| 2026-04-25 16:56 | 24.96353 | 65.28640 | 34840 ft | 464 kts | 263° |
| 2026-04-25 16:56 | 24.95902 | 65.25129 | 35137 ft | 466 kts | 263° |
| 2026-04-25 16:57 | 24.95444 | 65.21576 | 35415 ft | 467 kts | 263° |
| 2026-04-25 16:57 | 24.95143 | 65.19247 | 35604 ft | 468 kts | 263° |
| 2026-04-25 16:57 | 24.94530 | 65.14515 | 35817 ft | 469 kts | 263° |
| 2026-04-25 16:58 | 24.93599 | 65.07368 | 35828 ft | 470 kts | 263° |
| 2026-04-25 16:58 | 24.92668 | 65.00234 | 35828 ft | 470 kts | 263° |
| 2026-04-25 16:59 | 24.91732 | 64.93089 | 35829 ft | 470 kts | 264° |
| 2026-04-25 16:59 | 24.90800 | 64.86004 | 35826 ft | 469 kts | 263° |
| 2026-04-25 17:00 | 24.89858 | 64.78869 | 35823 ft | 469 kts | 263° |
| 2026-04-25 17:00 | 24.88915 | 64.71750 | 35827 ft | 470 kts | 263° |
| 2026-04-25 17:01 | 24.87968 | 64.64625 | 35829 ft | 471 kts | 263° |
| 2026-04-25 17:01 | 24.87016 | 64.57491 | 35827 ft | 471 kts | 263° |
| 2026-04-25 17:02 | 24.86058 | 64.50346 | 35829 ft | 471 kts | 263° |
| 2026-04-25 17:02 | 24.85091 | 64.43156 | 35832 ft | 470 kts | 263° |
| 2026-04-25 17:03 | 24.84133 | 64.36061 | 35824 ft | 470 kts | 263° |
| 2026-04-25 17:03 | 24.83169 | 64.28953 | 35827 ft | 470 kts | 263° |
| 2026-04-25 17:04 | 24.82203 | 64.21843 | 35826 ft | 471 kts | 263° |
| 2026-04-25 17:04 | 24.81227 | 64.14689 | 35820 ft | 471 kts | 263° |
| 2026-04-25 17:05 | 24.80244 | 64.07514 | 35818 ft | 472 kts | 263° |
| 2026-04-25 17:05 | 24.78770 | 63.96807 | 35814 ft | 472 kts | 263° |
| 2026-04-25 17:06 | 24.77783 | 63.89669 | 35821 ft | 472 kts | 263° |
| 2026-04-25 17:06 | 24.76787 | 63.82492 | 35832 ft | 471 kts | 263° |
| 2026-04-25 17:07 | 24.75801 | 63.75402 | 35833 ft | 470 kts | 263° |
| 2026-04-25 17:07 | 24.74803 | 63.68251 | 35829 ft | 470 kts | 263° |
| 2026-04-25 17:08 | 24.73812 | 63.61191 | 35832 ft | 470 kts | 263° |
| 2026-04-25 17:08 | 24.72811 | 63.54073 | 35831 ft | 470 kts | 263° |
| 2026-04-25 17:09 | 24.71812 | 63.47003 | 35833 ft | 470 kts | 263° |
| 2026-04-25 17:09 | 24.70806 | 63.39905 | 35833 ft | 470 kts | 263° |
| 2026-04-25 17:10 | 24.69801 | 63.32824 | 35830 ft | 470 kts | 263° |
| 2026-04-25 17:10 | 24.68787 | 63.25712 | 35831 ft | 469 kts | 263° |
| 2026-04-25 17:11 | 24.67774 | 63.18644 | 35828 ft | 469 kts | 263° |
| 2026-04-25 17:11 | 24.66759 | 63.11584 | 35830 ft | 469 kts | 263° |
| 2026-04-25 17:12 | 24.65737 | 63.04491 | 35832 ft | 469 kts | 263° |
| 2026-04-25 17:12 | 24.64719 | 62.97452 | 35831 ft | 469 kts | 263° |
| 2026-04-25 17:13 | 24.63865 | 62.91565 | 35831 ft | 469 kts | 263° |
| 2026-04-25 17:13 | 24.62667 | 62.83333 | 35835 ft | 469 kts | 263° |
| 2026-04-25 17:14 | 24.61631 | 62.76240 | 35837 ft | 469 kts | 263° |
| 2026-04-25 17:14 | 24.60587 | 62.69123 | 35841 ft | 469 kts | 263° |
| 2026-04-25 17:15 | 24.59552 | 62.62093 | 35839 ft | 468 kts | 263° |
| 2026-04-25 17:15 | 24.58515 | 62.55067 | 35843 ft | 469 kts | 263° |
| 2026-04-25 17:16 | 24.57465 | 62.47969 | 35841 ft | 469 kts | 263° |
| 2026-04-25 17:16 | 24.56421 | 62.40938 | 35843 ft | 469 kts | 263° |
| 2026-04-25 17:17 | 24.55360 | 62.33831 | 35842 ft | 469 kts | 262° |
| 2026-04-25 17:17 | 24.54309 | 62.26805 | 35844 ft | 469 kts | 262° |
| 2026-04-25 17:18 | 24.53244 | 62.19704 | 35842 ft | 469 kts | 262° |
| 2026-04-25 17:18 | 24.52177 | 62.12608 | 35845 ft | 469 kts | 262° |
| 2026-04-25 17:19 | 24.51117 | 62.05584 | 35845 ft | 469 kts | 262° |
| 2026-04-25 17:19 | 24.50045 | 61.98510 | 35846 ft | 469 kts | 262° |
| 2026-04-25 17:20 | 24.48970 | 61.91444 | 35848 ft | 468 kts | 262° |
| 2026-04-25 17:20 | 24.47896 | 61.84410 | 35848 ft | 468 kts | 262° |
| 2026-04-25 17:21 | 24.46818 | 61.77361 | 35848 ft | 468 kts | 262° |
| 2026-04-25 17:21 | 24.45736 | 61.70309 | 35847 ft | 468 kts | 262° |
| 2026-04-25 17:22 | 24.44840 | 61.64490 | 35846 ft | 468 kts | 262° |
| 2026-04-25 17:22 | 24.43570 | 61.56268 | 35844 ft | 467 kts | 263° |
| 2026-04-25 17:23 | 24.42480 | 61.49238 | 35842 ft | 467 kts | 262° |
| 2026-04-25 17:23 | 24.41393 | 61.42248 | 35843 ft | 467 kts | 262° |
| 2026-04-25 17:24 | 24.40291 | 61.35200 | 35841 ft | 466 kts | 263° |
| 2026-04-25 17:24 | 24.38952 | 61.28256 | 35841 ft | 467 kts | 259° |
| 2026-04-25 17:25 | 24.37508 | 61.21308 | 35840 ft | 467 kts | 259° |
| 2026-04-25 17:25 | 24.36057 | 61.14346 | 35841 ft | 467 kts | 259° |
| 2026-04-25 17:26 | 24.34613 | 61.07427 | 35839 ft | 466 kts | 259° |
| 2026-04-25 17:26 | 24.33154 | 61.00454 | 35840 ft | 466 kts | 259° |
| 2026-04-25 17:27 | 24.31699 | 60.93518 | 35842 ft | 466 kts | 259° |
| 2026-04-25 17:27 | 24.30737 | 60.88941 | 35850 ft | 467 kts | 259° |
| 2026-04-25 17:28 | 24.28777 | 60.79629 | 35851 ft | 466 kts | 259° |
| 2026-04-25 17:28 | 24.27323 | 60.72747 | 35854 ft | 466 kts | 259° |
| 2026-04-25 17:29 | 24.25853 | 60.65799 | 35853 ft | 466 kts | 259° |
| 2026-04-25 17:29 | 24.24395 | 60.58925 | 35853 ft | 466 kts | 259° |
| 2026-04-25 17:30 | 24.22914 | 60.51963 | 35855 ft | 465 kts | 259° |
| 2026-04-25 17:30 | 24.21447 | 60.45080 | 35859 ft | 465 kts | 259° |
| 2026-04-25 17:31 | 24.19967 | 60.38157 | 35861 ft | 464 kts | 259° |
| 2026-04-25 17:31 | 24.18492 | 60.31269 | 35861 ft | 465 kts | 259° |
| 2026-04-25 17:32 | 24.17008 | 60.24353 | 35859 ft | 465 kts | 259° |
| 2026-04-25 17:32 | 24.15524 | 60.17456 | 35863 ft | 465 kts | 259° |
| 2026-04-25 17:33 | 24.14034 | 60.10547 | 35859 ft | 465 kts | 259° |
| 2026-04-25 17:33 | 24.12546 | 60.03662 | 35859 ft | 465 kts | 259° |
| 2026-04-25 17:34 | 24.11056 | 59.96788 | 35861 ft | 464 kts | 259° |
| 2026-04-25 17:34 | 24.09563 | 59.89916 | 35868 ft | 464 kts | 259° |
| 2026-04-25 17:35 | 24.08063 | 59.83026 | 35862 ft | 464 kts | 259° |
| 2026-04-25 17:35 | 24.06570 | 59.76188 | 35866 ft | 464 kts | 259° |
| 2026-04-25 17:36 | 24.05067 | 59.69306 | 35860 ft | 464 kts | 259° |
| 2026-04-25 17:36 | 24.03563 | 59.62444 | 35867 ft | 464 kts | 259° |
| 2026-04-25 17:37 | 24.02062 | 59.55621 | 35863 ft | 463 kts | 259° |
| 2026-04-25 17:37 | 24.00544 | 59.48725 | 35865 ft | 463 kts | 259° |
| 2026-04-25 17:38 | 23.99294 | 59.43058 | 35866 ft | 463 kts | 259° |
| 2026-04-25 17:38 | 23.97525 | 59.35060 | 35864 ft | 463 kts | 259° |
| 2026-04-25 17:39 | 23.96004 | 59.28195 | 35870 ft | 462 kts | 259° |
| 2026-04-25 17:39 | 23.94490 | 59.21388 | 35864 ft | 461 kts | 259° |
| 2026-04-25 17:40 | 23.92826 | 59.14574 | 35867 ft | 463 kts | 255° |
| 2026-04-25 17:40 | 23.90575 | 59.07915 | 35868 ft | 465 kts | 251° |
| 2026-04-25 17:41 | 23.88087 | 59.01381 | 35869 ft | 466 kts | 251° |
| 2026-04-25 17:41 | 23.85594 | 58.94852 | 35865 ft | 466 kts | 251° |
| 2026-04-25 17:42 | 23.83096 | 58.88317 | 35861 ft | 465 kts | 251° |
| 2026-04-25 17:42 | 23.80595 | 58.81784 | 35871 ft | 464 kts | 251° |
| 2026-04-25 17:43 | 23.78118 | 58.75322 | 35878 ft | 465 kts | 251° |
| 2026-04-25 17:43 | 23.75612 | 58.68794 | 35879 ft | 465 kts | 251° |
| 2026-04-25 17:44 | 23.73111 | 58.62291 | 35877 ft | 465 kts | 251° |
| 2026-04-25 17:44 | 23.70603 | 58.55774 | 35887 ft | 466 kts | 251° |
| 2026-04-25 17:45 | 23.68934 | 58.51440 | 35883 ft | 465 kts | 251° |
| 2026-04-25 17:45 | 23.65584 | 58.42764 | 35884 ft | 465 kts | 251° |
| 2026-04-25 17:46 | 23.63072 | 58.36269 | 35889 ft | 465 kts | 251° |
| 2026-04-25 17:46 | 23.60516 | 58.29807 | 35893 ft | 466 kts | 249° |
| 2026-04-25 17:47 | 23.57438 | 58.23490 | 35894 ft | 470 kts | 243° |
| 2026-04-25 17:47 | 23.53865 | 58.17500 | 35907 ft | 471 kts | 240° |
| 2026-04-25 17:48 | 23.48370 | 58.08570 | 35915 ft | 472 kts | 240° |
| 2026-04-25 17:49 | 23.44714 | 58.02633 | 35935 ft | 473 kts | 240° |
| 2026-04-25 17:49 | 23.41056 | 57.96700 | 35961 ft | 473 kts | 241° |
| 2026-04-25 17:50 | 23.37404 | 57.90781 | 35972 ft | 472 kts | 241° |
| 2026-04-25 17:50 | 23.33730 | 57.84835 | 35993 ft | 473 kts | 241° |
| 2026-04-25 17:51 | 23.30071 | 57.78920 | 36025 ft | 472 kts | 241° |
| 2026-04-25 17:51 | 23.26372 | 57.72948 | 36049 ft | 472 kts | 241° |
| 2026-04-25 17:52 | 23.22715 | 57.67047 | 36088 ft | 472 kts | 241° |
| 2026-04-25 17:52 | 23.19039 | 57.61127 | 36113 ft | 471 kts | 241° |
| 2026-04-25 17:53 | 23.15348 | 57.55187 | 36131 ft | 471 kts | 241° |
| 2026-04-25 17:53 | 23.11676 | 57.49282 | 36136 ft | 472 kts | 241° |
| 2026-04-25 17:54 | 23.07997 | 57.43375 | 36147 ft | 473 kts | 241° |
| 2026-04-25 17:54 | 23.04521 | 57.37335 | 36144 ft | 468 kts | 248° |
| 2026-04-25 17:55 | 23.02074 | 57.30866 | 36148 ft | 462 kts | 257° |
| 2026-04-25 17:55 | 23.00729 | 57.24115 | 36142 ft | 455 kts | 267° |
| 2026-04-25 17:56 | 23.00471 | 57.17320 | 36132 ft | 450 kts | 274° |
| 2026-04-25 17:56 | 23.00633 | 57.10499 | 36114 ft | 450 kts | 275° |
| 2026-04-25 17:57 | 23.00809 | 57.03745 | 36088 ft | 449 kts | 275° |
| 2026-04-25 17:57 | 23.00974 | 56.96991 | 36076 ft | 449 kts | 275° |
| 2026-04-25 17:58 | 23.01143 | 56.90147 | 36067 ft | 450 kts | 275° |
| 2026-04-25 17:58 | 23.01304 | 56.83419 | 36055 ft | 449 kts | 275° |
| 2026-04-25 17:59 | 23.01463 | 56.76604 | 36042 ft | 450 kts | 275° |
| 2026-04-25 17:59 | 23.01617 | 56.69821 | 36029 ft | 450 kts | 275° |
| 2026-04-25 18:00 | 23.01767 | 56.63052 | 36021 ft | 450 kts | 274° |
| 2026-04-25 18:00 | 23.01915 | 56.56267 | 36003 ft | 449 kts | 275° |
| 2026-04-25 18:01 | 23.02058 | 56.49507 | 35985 ft | 448 kts | 275° |
| 2026-04-25 18:01 | 23.02201 | 56.42697 | 35977 ft | 449 kts | 275° |
| 2026-04-25 18:02 | 23.02338 | 56.35957 | 35972 ft | 448 kts | 275° |
| 2026-04-25 18:02 | 23.02472 | 56.29186 | 35961 ft | 448 kts | 274° |
| 2026-04-25 18:03 | 23.02604 | 56.22427 | 35959 ft | 449 kts | 274° |
| 2026-04-25 18:03 | 23.02731 | 56.15650 | 35966 ft | 448 kts | 274° |
| 2026-04-25 18:04 | 23.02849 | 56.08949 | 35963 ft | 448 kts | 274° |
| 2026-04-25 18:04 | 23.02967 | 56.02184 | 35956 ft | 448 kts | 274° |
| 2026-04-25 18:05 | 23.03080 | 55.95430 | 35947 ft | 447 kts | 274° |
| 2026-04-25 18:05 | 23.03194 | 55.88716 | 35943 ft | 446 kts | 274° |
| 2026-04-25 18:06 | 23.03311 | 55.82013 | 35942 ft | 446 kts | 274° |
| 2026-04-25 18:06 | 23.03420 | 55.75296 | 35942 ft | 444 kts | 274° |
| 2026-04-25 18:07 | 23.03522 | 55.68576 | 35934 ft | 446 kts | 274° |
| 2026-04-25 18:07 | 23.03622 | 55.61894 | 35921 ft | 444 kts | 274° |
| 2026-04-25 18:08 | 23.03720 | 55.55180 | 35922 ft | 444 kts | 274° |
| 2026-04-25 18:08 | 23.03820 | 55.48469 | 35918 ft | 444 kts | 274° |
| 2026-04-25 18:09 | 23.03917 | 55.41760 | 35921 ft | 442 kts | 274° |
| 2026-04-25 18:09 | 23.03955 | 55.35116 | 35928 ft | 442 kts | 272° |
| 2026-04-25 18:10 | 23.03490 | 55.28406 | 35930 ft | 444 kts | 267° |
| 2026-04-25 18:10 | 23.02471 | 55.21783 | 35931 ft | 446 kts | 262° |
| 2026-04-25 18:11 | 23.01165 | 55.15115 | 35926 ft | 447 kts | 262° |
| 2026-04-25 18:11 | 22.99872 | 55.08537 | 35915 ft | 446 kts | 262° |
| 2026-04-25 18:12 | 22.98565 | 55.01900 | 35912 ft | 447 kts | 262° |
| 2026-04-25 18:12 | 22.97266 | 54.95333 | 35914 ft | 446 kts | 262° |
| 2026-04-25 18:13 | 22.95959 | 54.88742 | 35915 ft | 447 kts | 262° |
| 2026-04-25 18:13 | 22.94654 | 54.82167 | 35913 ft | 447 kts | 262° |
| 2026-04-25 18:14 | 22.92684 | 54.72269 | 35913 ft | 446 kts | 263° |
| 2026-04-25 18:14 | 22.91372 | 54.65699 | 35912 ft | 446 kts | 262° |
| 2026-04-25 18:15 | 22.90058 | 54.59128 | 35911 ft | 445 kts | 262° |
| 2026-04-25 18:15 | 22.88741 | 54.52564 | 35916 ft | 447 kts | 262° |
| 2026-04-25 18:16 | 22.87412 | 54.45952 | 35916 ft | 446 kts | 262° |
| 2026-04-25 18:17 | 22.85424 | 54.36108 | 35921 ft | 445 kts | 262° |
| 2026-04-25 18:17 | 22.84096 | 54.29563 | 35927 ft | 446 kts | 262° |
| 2026-04-25 18:18 | 22.82765 | 54.22997 | 35931 ft | 445 kts | 262° |
| 2026-04-25 18:18 | 22.81429 | 54.16431 | 35930 ft | 446 kts | 262° |
| 2026-04-25 18:19 | 22.80092 | 54.09860 | 35930 ft | 446 kts | 262° |
| 2026-04-25 18:19 | 22.78986 | 54.03612 | 35933 ft | 444 kts | 266° |
| 2026-04-25 18:20 | 22.78367 | 53.96973 | 35930 ft | 440 kts | 271° |
| 2026-04-25 18:20 | 22.78317 | 53.90360 | 35930 ft | 438 kts | 275° |
| 2026-04-25 18:21 | 22.78528 | 53.83782 | 35923 ft | 438 kts | 275° |
| 2026-04-25 18:21 | 22.78744 | 53.77168 | 35923 ft | 437 kts | 275° |
| 2026-04-25 18:22 | 22.78956 | 53.70604 | 35918 ft | 437 kts | 276° |
| 2026-04-25 18:22 | 22.79170 | 53.64046 | 35921 ft | 436 kts | 275° |
| 2026-04-25 18:23 | 22.79378 | 53.57475 | 35921 ft | 437 kts | 275° |
| 2026-04-25 18:23 | 22.79587 | 53.50866 | 35922 ft | 437 kts | 275° |
| 2026-04-25 18:24 | 22.79790 | 53.44286 | 35921 ft | 437 kts | 275° |
| 2026-04-25 18:24 | 22.79991 | 53.37711 | 35920 ft | 437 kts | 275° |
| 2026-04-25 18:25 | 22.80189 | 53.31155 | 35925 ft | 437 kts | 275° |
| 2026-04-25 18:25 | 22.80386 | 53.24534 | 35924 ft | 437 kts | 275° |
| 2026-04-25 18:26 | 22.80579 | 53.17982 | 35924 ft | 437 kts | 275° |
| 2026-04-25 18:26 | 22.80770 | 53.11402 | 35938 ft | 436 kts | 275° |
| 2026-04-25 18:27 | 22.80958 | 53.04833 | 35934 ft | 436 kts | 275° |
| 2026-04-25 18:27 | 22.81139 | 52.98307 | 35937 ft | 437 kts | 275° |
| 2026-04-25 18:28 | 22.81323 | 52.91713 | 35942 ft | 435 kts | 275° |
| 2026-04-25 18:28 | 22.81502 | 52.85181 | 35936 ft | 436 kts | 275° |
| 2026-04-25 18:29 | 22.81764 | 52.75329 | 35927 ft | 435 kts | 275° |
| 2026-04-25 18:30 | 22.82104 | 52.62218 | 35923 ft | 435 kts | 275° |
| 2026-04-25 18:30 | 22.82271 | 52.55636 | 35924 ft | 436 kts | 275° |
| 2026-04-25 18:31 | 22.82433 | 52.49036 | 35922 ft | 435 kts | 275° |
| 2026-04-25 18:31 | 22.82581 | 52.42494 | 35923 ft | 435 kts | 275° |
| 2026-04-25 18:32 | 22.82717 | 52.35923 | 35920 ft | 435 kts | 275° |
| 2026-04-25 18:32 | 22.82850 | 52.29371 | 35922 ft | 436 kts | 274° |
| 2026-04-25 18:33 | 22.82982 | 52.22824 | 35919 ft | 436 kts | 274° |
| 2026-04-25 18:33 | 22.83111 | 52.16242 | 35917 ft | 436 kts | 274° |
| 2026-04-25 18:34 | 22.83236 | 52.09659 | 35918 ft | 436 kts | 274° |
| 2026-04-25 18:34 | 22.83360 | 52.03117 | 35915 ft | 436 kts | 274° |
| 2026-04-25 18:35 | 22.83482 | 51.96548 | 35915 ft | 436 kts | 274° |
| 2026-04-25 18:35 | 22.83596 | 51.90188 | 35916 ft | 436 kts | 274° |
| 2026-04-25 18:36 | 22.83710 | 51.83640 | 35917 ft | 436 kts | 274° |
| 2026-04-25 18:36 | 22.83821 | 51.77089 | 35918 ft | 436 kts | 274° |
| 2026-04-25 18:37 | 22.83929 | 51.70536 | 35917 ft | 436 kts | 274° |
| 2026-04-25 18:37 | 22.84034 | 51.63966 | 35923 ft | 435 kts | 274° |
| 2026-04-25 18:38 | 22.84136 | 51.57368 | 35931 ft | 434 kts | 274° |
| 2026-04-25 18:38 | 22.84181 | 51.50840 | 35936 ft | 436 kts | 272° |
| 2026-04-25 18:39 | 22.83742 | 51.44242 | 35937 ft | 438 kts | 267° |
| 2026-04-25 18:39 | 22.82753 | 51.37720 | 35937 ft | 440 kts | 264° |
| 2026-04-25 18:40 | 22.81610 | 51.31207 | 35940 ft | 441 kts | 263° |
| 2026-04-25 18:40 | 22.80449 | 51.24645 | 35938 ft | 440 kts | 263° |
| 2026-04-25 18:41 | 22.79294 | 51.18152 | 35938 ft | 440 kts | 264° |
| 2026-04-25 18:41 | 22.78133 | 51.11641 | 35937 ft | 441 kts | 263° |
| 2026-04-25 18:42 | 22.77172 | 51.06248 | 35941 ft | 440 kts | 264° |
| 2026-04-25 18:42 | 22.75813 | 50.98681 | 35940 ft | 440 kts | 263° |
| 2026-04-25 18:43 | 22.74643 | 50.92172 | 35940 ft | 441 kts | 263° |
| 2026-04-25 18:43 | 22.73468 | 50.85657 | 35943 ft | 441 kts | 263° |
| 2026-04-25 18:44 | 22.72292 | 50.79156 | 35942 ft | 441 kts | 263° |
| 2026-04-25 18:44 | 22.71106 | 50.72616 | 35947 ft | 441 kts | 263° |
| 2026-04-25 18:45 | 22.69920 | 50.66083 | 35947 ft | 440 kts | 263° |
| 2026-04-25 18:45 | 22.68738 | 50.59585 | 35948 ft | 440 kts | 263° |
| 2026-04-25 18:46 | 22.67557 | 50.53106 | 35945 ft | 441 kts | 263° |
| 2026-04-25 18:46 | 22.66369 | 50.46609 | 35945 ft | 441 kts | 263° |
| 2026-04-25 18:47 | 22.65174 | 50.40096 | 35947 ft | 440 kts | 263° |
| 2026-04-25 18:47 | 22.63965 | 50.33527 | 35946 ft | 440 kts | 263° |
| 2026-04-25 18:48 | 22.62770 | 50.27052 | 35945 ft | 441 kts | 263° |
| 2026-04-25 18:48 | 22.61569 | 50.20548 | 35941 ft | 440 kts | 263° |
| 2026-04-25 18:49 | 22.60368 | 50.14055 | 35936 ft | 441 kts | 263° |
| 2026-04-25 18:49 | 22.59160 | 50.07557 | 35934 ft | 440 kts | 263° |
| 2026-04-25 18:50 | 22.57947 | 50.01052 | 35930 ft | 441 kts | 263° |
| 2026-04-25 18:50 | 22.56730 | 49.94533 | 35930 ft | 442 kts | 263° |
| 2026-04-25 18:51 | 22.55719 | 49.89130 | 35932 ft | 441 kts | 263° |
| 2026-04-25 18:51 | 22.54563 | 49.81502 | 35931 ft | 438 kts | 268° |
| 2026-04-25 18:52 | 22.54180 | 49.74948 | 35933 ft | 436 kts | 272° |
| 2026-04-25 18:52 | 22.54355 | 49.68404 | 35931 ft | 434 kts | 277° |
| 2026-04-25 18:53 | 22.54940 | 49.61916 | 35932 ft | 434 kts | 278° |
| 2026-04-25 18:53 | 22.55552 | 49.55426 | 35933 ft | 433 kts | 278° |
| 2026-04-25 18:54 | 22.56465 | 49.45724 | 35936 ft | 433 kts | 278° |
| 2026-04-25 18:55 | 22.57071 | 49.39259 | 35939 ft | 433 kts | 278° |
| 2026-04-25 18:55 | 22.57677 | 49.32791 | 35942 ft | 433 kts | 278° |
| 2026-04-25 18:56 | 22.58281 | 49.26300 | 35941 ft | 433 kts | 278° |
| 2026-04-25 18:56 | 22.58882 | 49.19817 | 35942 ft | 433 kts | 278° |
| 2026-04-25 18:57 | 22.59479 | 49.13351 | 35941 ft | 432 kts | 277° |
| 2026-04-25 18:57 | 22.60072 | 49.06891 | 35942 ft | 434 kts | 277° |
| 2026-04-25 18:58 | 22.60665 | 49.00400 | 35944 ft | 433 kts | 277° |
| 2026-04-25 18:58 | 22.61556 | 48.90620 | 35949 ft | 433 kts | 277° |
| 2026-04-25 18:59 | 22.62720 | 48.77708 | 35954 ft | 432 kts | 277° |
| 2026-04-25 19:00 | 22.63591 | 48.67988 | 35961 ft | 433 kts | 277° |
| 2026-04-25 19:01 | 22.64456 | 48.58252 | 35969 ft | 432 kts | 277° |
| 2026-04-25 19:01 | 22.65025 | 48.51800 | 35974 ft | 432 kts | 277° |
| 2026-04-25 19:02 | 22.65873 | 48.42142 | 35981 ft | 430 kts | 277° |
| 2026-04-25 19:03 | 22.66527 | 48.34644 | 35979 ft | 431 kts | 277° |
| 2026-04-25 19:03 | 22.67273 | 48.26051 | 35981 ft | 430 kts | 277° |
| 2026-04-25 19:04 | 22.68100 | 48.16414 | 35981 ft | 429 kts | 277° |
| 2026-04-25 19:05 | 22.69200 | 48.03534 | 35984 ft | 429 kts | 277° |
| 2026-04-25 19:06 | 22.69745 | 47.97121 | 35989 ft | 428 kts | 277° |
| 2026-04-25 19:06 | 22.70564 | 47.87416 | 36079 ft | 432 kts | 277° |
| 2026-04-25 19:07 | 22.71102 | 47.80985 | 36957 ft | 427 kts | 276° |
| 2026-04-25 19:07 | 22.71368 | 47.77785 | 37357 ft | 425 kts | 277° |
| 2026-04-25 19:08 | 22.71893 | 47.71435 | 37884 ft | 425 kts | 277° |
| 2026-04-25 19:08 | 22.72158 | 47.68226 | 37999 ft | 425 kts | 276° |
| 2026-04-25 19:09 | 22.73113 | 47.56568 | 38020 ft | 424 kts | 276° |
| 2026-04-25 19:10 | 22.73974 | 47.45944 | 38025 ft | 424 kts | 276° |
| 2026-04-25 19:10 | 22.74485 | 47.39578 | 38028 ft | 425 kts | 277° |
| 2026-04-25 19:11 | 22.74997 | 47.33198 | 38041 ft | 424 kts | 276° |
| 2026-04-25 19:11 | 22.75503 | 47.26831 | 38039 ft | 423 kts | 276° |
| 2026-04-25 19:12 | 22.76008 | 47.20453 | 38045 ft | 424 kts | 276° |
| 2026-04-25 19:12 | 22.76515 | 47.14120 | 38055 ft | 423 kts | 276° |
| 2026-04-25 19:13 | 22.77023 | 47.07773 | 38057 ft | 423 kts | 276° |
| 2026-04-25 19:13 | 22.77531 | 47.01411 | 38063 ft | 423 kts | 276° |
| 2026-04-25 19:14 | 22.78029 | 46.95075 | 38057 ft | 424 kts | 276° |
| 2026-04-25 19:14 | 22.78525 | 46.88725 | 38060 ft | 424 kts | 276° |
| 2026-04-25 19:15 | 22.79022 | 46.82382 | 38056 ft | 424 kts | 276° |
| 2026-04-25 19:15 | 22.79514 | 46.76024 | 38062 ft | 423 kts | 276° |
| 2026-04-25 19:16 | 22.80003 | 46.69651 | 38066 ft | 423 kts | 276° |
| 2026-04-25 19:16 | 22.80485 | 46.63343 | 38082 ft | 423 kts | 276° |
| 2026-04-25 19:17 | 22.80973 | 46.56944 | 38088 ft | 423 kts | 276° |
| 2026-04-25 19:17 | 22.81455 | 46.50564 | 38098 ft | 423 kts | 276° |
| 2026-04-25 19:18 | 22.81933 | 46.44188 | 38108 ft | 422 kts | 276° |
| 2026-04-25 19:18 | 22.82409 | 46.37867 | 38115 ft | 422 kts | 276° |
| 2026-04-25 19:19 | 22.82887 | 46.31502 | 38125 ft | 422 kts | 275° |
| 2026-04-25 19:19 | 22.83357 | 46.25193 | 38132 ft | 421 kts | 275° |
| 2026-04-25 19:20 | 22.83822 | 46.18859 | 38122 ft | 421 kts | 275° |
| 2026-04-25 19:20 | 22.84288 | 46.12499 | 38112 ft | 422 kts | 276° |
| 2026-04-25 19:21 | 22.84752 | 46.06128 | 38086 ft | 422 kts | 275° |
| 2026-04-25 19:21 | 22.85439 | 45.96599 | 38060 ft | 423 kts | 275° |
| 2026-04-25 19:22 | 22.85893 | 45.90261 | 38060 ft | 422 kts | 275° |
| 2026-04-25 19:23 | 22.86569 | 45.80732 | 38060 ft | 422 kts | 275° |
| 2026-04-25 19:23 | 22.87242 | 45.71197 | 38064 ft | 422 kts | 275° |
| 2026-04-25 19:24 | 22.87684 | 45.64893 | 38069 ft | 422 kts | 275° |
| 2026-04-25 19:25 | 22.88565 | 45.52198 | 38075 ft | 421 kts | 275° |
| 2026-04-25 19:25 | 22.89001 | 45.45873 | 38078 ft | 421 kts | 275° |
| 2026-04-25 19:26 | 22.89431 | 45.39570 | 38078 ft | 420 kts | 275° |
| 2026-04-25 19:26 | 22.89858 | 45.33268 | 38081 ft | 420 kts | 275° |
| 2026-04-25 19:27 | 22.90214 | 45.27977 | 38080 ft | 420 kts | 275° |
| 2026-04-25 19:27 | 22.90709 | 45.20623 | 38083 ft | 420 kts | 275° |
| 2026-04-25 19:28 | 22.91131 | 45.14276 | 38091 ft | 420 kts | 275° |
| 2026-04-25 19:28 | 22.91548 | 45.07953 | 38098 ft | 420 kts | 275° |
| 2026-04-25 19:29 | 22.91973 | 45.01592 | 38101 ft | 421 kts | 275° |
| 2026-04-25 19:29 | 22.92388 | 44.95267 | 38103 ft | 420 kts | 275° |
| 2026-04-25 19:30 | 22.92798 | 44.88945 | 38107 ft | 420 kts | 275° |
| 2026-04-25 19:30 | 22.93205 | 44.82646 | 38106 ft | 420 kts | 275° |
| 2026-04-25 19:31 | 22.93613 | 44.76293 | 38106 ft | 419 kts | 275° |
| 2026-04-25 19:31 | 22.94282 | 44.70021 | 38103 ft | 419 kts | 280° |
| 2026-04-25 19:32 | 22.95454 | 44.63839 | 38102 ft | 419 kts | 284° |
| 2026-04-25 19:32 | 22.96805 | 44.58798 | 38101 ft | 419 kts | 288° |
| 2026-04-25 19:33 | 22.98948 | 44.51797 | 38092 ft | 419 kts | 288° |
| 2026-04-25 19:33 | 23.00784 | 44.45822 | 38097 ft | 419 kts | 288° |
| 2026-04-25 19:34 | 23.02623 | 44.39845 | 38103 ft | 419 kts | 288° |
| 2026-04-25 19:34 | 23.04466 | 44.33844 | 38114 ft | 419 kts | 287° |
| 2026-04-25 19:35 | 23.06316 | 44.27813 | 38116 ft | 418 kts | 287° |
| 2026-04-25 19:35 | 23.08136 | 44.21875 | 38114 ft | 417 kts | 287° |
| 2026-04-25 19:36 | 23.09974 | 44.15870 | 38114 ft | 418 kts | 287° |
| 2026-04-25 19:36 | 23.11816 | 44.09845 | 38121 ft | 418 kts | 287° |
| 2026-04-25 19:37 | 23.13629 | 44.03897 | 38118 ft | 418 kts | 287° |
| 2026-04-25 19:37 | 23.15444 | 43.97931 | 38117 ft | 417 kts | 287° |
| 2026-04-25 19:38 | 23.17266 | 43.91946 | 38117 ft | 417 kts | 287° |
| 2026-04-25 19:38 | 23.19084 | 43.85957 | 38119 ft | 416 kts | 287° |
| 2026-04-25 19:39 | 23.20908 | 43.79937 | 38119 ft | 416 kts | 287° |
| 2026-04-25 19:39 | 23.22715 | 43.73965 | 38118 ft | 416 kts | 287° |
| 2026-04-25 19:40 | 23.24518 | 43.67988 | 38120 ft | 415 kts | 287° |
| 2026-04-25 19:40 | 23.26306 | 43.62058 | 38122 ft | 415 kts | 287° |
| 2026-04-25 19:41 | 23.28105 | 43.56078 | 38122 ft | 414 kts | 287° |
| 2026-04-25 19:41 | 23.29307 | 43.52110 | 38122 ft | 415 kts | 287° |
| 2026-04-25 19:42 | 23.31699 | 43.44169 | 38122 ft | 415 kts | 287° |
| 2026-04-25 19:42 | 23.33448 | 43.38338 | 38126 ft | 415 kts | 287° |
| 2026-04-25 19:43 | 23.35239 | 43.32349 | 38131 ft | 414 kts | 287° |
| 2026-04-25 19:43 | 23.37019 | 43.26396 | 38131 ft | 414 kts | 286° |
| 2026-04-25 19:44 | 23.38802 | 43.20406 | 38133 ft | 414 kts | 286° |
| 2026-04-25 19:44 | 23.40586 | 43.14418 | 38134 ft | 415 kts | 287° |
| 2026-04-25 19:45 | 23.42361 | 43.08470 | 38137 ft | 414 kts | 286° |
| 2026-04-25 19:45 | 23.44128 | 43.02526 | 38141 ft | 414 kts | 286° |
| 2026-04-25 19:46 | 23.45890 | 42.96571 | 38142 ft | 413 kts | 287° |
| 2026-04-25 19:46 | 23.47653 | 42.90600 | 38141 ft | 414 kts | 286° |
| 2026-04-25 19:47 | 23.49406 | 42.84651 | 38140 ft | 414 kts | 286° |
| 2026-04-25 19:47 | 23.51151 | 42.78717 | 38135 ft | 413 kts | 286° |
| 2026-04-25 19:48 | 23.52914 | 42.72736 | 38135 ft | 413 kts | 287° |
| 2026-04-25 19:48 | 23.54670 | 42.66810 | 38135 ft | 413 kts | 286° |
| 2026-04-25 19:49 | 23.55830 | 42.62871 | 38136 ft | 413 kts | 286° |
| 2026-04-25 19:49 | 23.58164 | 42.54923 | 38132 ft | 413 kts | 286° |
| 2026-04-25 19:50 | 23.60784 | 42.45976 | 38127 ft | 413 kts | 286° |
| 2026-04-25 19:51 | 23.62532 | 42.39988 | 38126 ft | 414 kts | 286° |
| 2026-04-25 19:51 | 23.64277 | 42.33989 | 38129 ft | 413 kts | 286° |
| 2026-04-25 19:52 | 23.66022 | 42.28005 | 38125 ft | 413 kts | 285° |
| 2026-04-25 19:52 | 23.67765 | 42.22018 | 38123 ft | 413 kts | 286° |
| 2026-04-25 19:53 | 23.69509 | 42.16005 | 38117 ft | 413 kts | 285° |
| 2026-04-25 19:53 | 23.71234 | 42.10037 | 38111 ft | 415 kts | 285° |
| 2026-04-25 19:54 | 23.72969 | 42.04008 | 38106 ft | 415 kts | 285° |
| 2026-04-25 19:54 | 23.74696 | 41.98019 | 38102 ft | 415 kts | 285° |
| 2026-04-25 19:55 | 23.76434 | 41.92020 | 38102 ft | 414 kts | 285° |
| 2026-04-25 19:55 | 23.78173 | 41.85999 | 38101 ft | 415 kts | 285° |
| 2026-04-25 19:56 | 23.79899 | 41.79996 | 38099 ft | 414 kts | 285° |
| 2026-04-25 19:56 | 23.81633 | 41.73986 | 38099 ft | 415 kts | 285° |
| 2026-04-25 19:57 | 23.83353 | 41.67992 | 38096 ft | 415 kts | 285° |
| 2026-04-25 19:57 | 23.85065 | 41.61999 | 38091 ft | 415 kts | 285° |
| 2026-04-25 19:58 | 23.86797 | 41.55947 | 38090 ft | 415 kts | 285° |
| 2026-04-25 19:58 | 23.88508 | 41.49946 | 38089 ft | 415 kts | 285° |
| 2026-04-25 19:59 | 23.90224 | 41.43890 | 38086 ft | 414 kts | 285° |
| 2026-04-25 19:59 | 23.91930 | 41.37867 | 38083 ft | 415 kts | 285° |
| 2026-04-25 20:00 | 23.93641 | 41.31840 | 38081 ft | 415 kts | 285° |
| 2026-04-25 20:00 | 23.95344 | 41.25851 | 38072 ft | 415 kts | 284° |
| 2026-04-25 20:01 | 23.97903 | 41.16812 | 38072 ft | 414 kts | 285° |
| 2026-04-25 20:01 | 23.98745 | 41.13828 | 37798 ft | 414 kts | 284° |
| 2026-04-25 20:01 | 23.99591 | 41.10829 | 37503 ft | 412 kts | 285° |
| 2026-04-25 20:02 | 24.00429 | 41.07856 | 37216 ft | 408 kts | 284° |
| 2026-04-25 20:02 | 24.01257 | 41.04899 | 36917 ft | 405 kts | 284° |
| 2026-04-25 20:02 | 24.02076 | 41.01984 | 36443 ft | 400 kts | 284° |
| 2026-04-25 20:02 | 24.02891 | 40.99088 | 35691 ft | 402 kts | 284° |
| 2026-04-25 20:03 | 24.03710 | 40.96173 | 34854 ft | 404 kts | 284° |
| 2026-04-25 20:03 | 24.04542 | 40.93222 | 34046 ft | 406 kts | 284° |
| 2026-04-25 20:03 | 24.05367 | 40.90293 | 33279 ft | 407 kts | 284° |
| 2026-04-25 20:03 | 24.06192 | 40.87364 | 32484 ft | 408 kts | 283° |
| 2026-04-25 20:04 | 24.07035 | 40.84373 | 31676 ft | 412 kts | 285° |
| 2026-04-25 20:04 | 24.08161 | 40.81503 | 31052 ft | 415 kts | 294° |
| 2026-04-25 20:04 | 24.09664 | 40.78846 | 30681 ft | 417 kts | 300° |
| 2026-04-25 20:04 | 24.11503 | 40.76345 | 30055 ft | 426 kts | 305° |
| 2026-04-25 20:05 | 24.13466 | 40.73888 | 29474 ft | 425 kts | 306° |
| 2026-04-25 20:05 | 24.15403 | 40.71479 | 28774 ft | 427 kts | 306° |
| 2026-04-25 20:05 | 24.17382 | 40.69019 | 27955 ft | 431 kts | 306° |
| 2026-04-25 20:05 | 24.19335 | 40.66597 | 27584 ft | 424 kts | 306° |
| 2026-04-25 20:06 | 24.21292 | 40.64169 | 27113 ft | 420 kts | 306° |
| 2026-04-25 20:06 | 24.23206 | 40.61788 | 26498 ft | 420 kts | 306° |
| 2026-04-25 20:06 | 24.25121 | 40.59404 | 25846 ft | 421 kts | 306° |
| 2026-04-25 20:06 | 24.27065 | 40.56978 | 25127 ft | 424 kts | 306° |
| 2026-04-25 20:07 | 24.29008 | 40.54551 | 24316 ft | 429 kts | 306° |
| 2026-04-25 20:07 | 24.30979 | 40.52086 | 23490 ft | 434 kts | 306° |
| 2026-04-25 20:07 | 24.32969 | 40.49598 | 22648 ft | 439 kts | 306° |
| 2026-04-25 20:07 | 24.35003 | 40.47055 | 21794 ft | 443 kts | 306° |
| 2026-04-25 20:08 | 24.37023 | 40.44532 | 20953 ft | 446 kts | 306° |
| 2026-04-25 20:08 | 24.39054 | 40.41994 | 20416 ft | 441 kts | 306° |
| 2026-04-25 20:08 | 24.41069 | 40.39486 | 20223 ft | 428 kts | 306° |
| 2026-04-25 20:08 | 24.42991 | 40.37087 | 20024 ft | 416 kts | 306° |
| 2026-04-25 20:09 | 24.44865 | 40.34744 | 19831 ft | 404 kts | 306° |
| 2026-04-25 20:09 | 24.46705 | 40.32438 | 19537 ft | 397 kts | 305° |
| 2026-04-25 20:09 | 24.48503 | 40.30180 | 19092 ft | 393 kts | 305° |
| 2026-04-25 20:09 | 24.50304 | 40.27916 | 18612 ft | 391 kts | 305° |
| 2026-04-25 20:10 | 24.52074 | 40.25692 | 17990 ft | 389 kts | 305° |
| 2026-04-25 20:10 | 24.53853 | 40.23457 | 17166 ft | 388 kts | 305° |
| 2026-04-25 20:10 | 24.55641 | 40.21202 | 16038 ft | 395 kts | 306° |
| 2026-04-25 20:10 | 24.57448 | 40.18921 | 15297 ft | 399 kts | 306° |
| 2026-04-25 20:11 | 24.59269 | 40.16629 | 14729 ft | 398 kts | 306° |
| 2026-04-25 20:11 | 24.61076 | 40.14357 | 14221 ft | 395 kts | 306° |
| 2026-04-25 20:11 | 24.62870 | 40.12099 | 13748 ft | 391 kts | 307° |
| 2026-04-25 20:11 | 24.64671 | 40.09836 | 13490 ft | 390 kts | 307° |
| 2026-04-25 20:12 | 24.66445 | 40.07601 | 13230 ft | 390 kts | 307° |
| 2026-04-25 20:12 | 24.68226 | 40.05354 | 12882 ft | 385 kts | 307° |
| 2026-04-25 20:12 | 24.69968 | 40.03160 | 12488 ft | 379 kts | 307° |
| 2026-04-25 20:12 | 24.70536 | 40.02445 | 12357 ft | 378 kts | 307° |
| 2026-04-25 20:13 | 24.73378 | 39.98857 | 11677 ft | 370 kts | 307° |
| 2026-04-25 20:13 | 24.75038 | 39.96761 | 11226 ft | 360 kts | 308° |
| 2026-04-25 20:13 | 24.76663 | 39.94711 | 10854 ft | 347 kts | 308° |
| 2026-04-25 20:13 | 24.78226 | 39.92736 | 10472 ft | 335 kts | 308° |
| 2026-04-25 20:14 | 24.79704 | 39.90869 | 10317 ft | 317 kts | 307° |
| 2026-04-25 20:14 | 24.81116 | 39.89086 | 10294 ft | 296 kts | 307° |
| 2026-04-25 20:14 | 24.82439 | 39.87415 | 10282 ft | 281 kts | 307° |
| 2026-04-25 20:14 | 24.83674 | 39.85847 | 10242 ft | 268 kts | 307° |
| 2026-04-25 20:15 | 24.84878 | 39.84318 | 10209 ft | 257 kts | 307° |
| 2026-04-25 20:15 | 24.86046 | 39.82832 | 10185 ft | 257 kts | 307° |
| 2026-04-25 20:15 | 24.87224 | 39.81334 | 10159 ft | 257 kts | 306° |
| 2026-04-25 20:15 | 24.88386 | 39.79855 | 10096 ft | 259 kts | 307° |
| 2026-04-25 20:16 | 24.89569 | 39.78350 | 9802 ft | 258 kts | 307° |
| 2026-04-25 20:16 | 24.90733 | 39.76872 | 9762 ft | 256 kts | 307° |
| 2026-04-25 20:16 | 24.91897 | 39.75396 | 9737 ft | 257 kts | 306° |
| 2026-04-25 20:16 | 24.92771 | 39.73732 | 9560 ft | 246 kts | 278° |
| 2026-04-25 20:17 | 24.92726 | 39.71909 | 9375 ft | 234 kts | 255° |
| 2026-04-25 20:17 | 24.92355 | 39.70196 | 9219 ft | 225 kts | 255° |
| 2026-04-25 20:17 | 24.92012 | 39.68565 | 9007 ft | 212 kts | 256° |
| 2026-04-25 20:17 | 24.91696 | 39.67021 | 8683 ft | 207 kts | 256° |
| 2026-04-25 20:18 | 24.91291 | 39.65520 | 8304 ft | 206 kts | 241° |
| 2026-04-25 20:18 | 24.90333 | 39.64356 | 7898 ft | 207 kts | 214° |
| 2026-04-25 20:18 | 24.88990 | 39.63808 | 7585 ft | 209 kts | 188° |
| 2026-04-25 20:18 | 24.87528 | 39.63931 | 7372 ft | 213 kts | 172° |
| 2026-04-25 20:19 | 24.86051 | 39.64242 | 7131 ft | 214 kts | 171° |
| 2026-04-25 20:19 | 24.84592 | 39.64564 | 6882 ft | 214 kts | 171° |
| 2026-04-25 20:19 | 24.83133 | 39.64886 | 6633 ft | 214 kts | 171° |
| 2026-04-25 20:19 | 24.81655 | 39.65210 | 6381 ft | 214 kts | 171° |
| 2026-04-25 20:20 | 24.80196 | 39.65527 | 6151 ft | 214 kts | 171° |
| 2026-04-25 20:20 | 24.78736 | 39.65837 | 5942 ft | 214 kts | 171° |
| 2026-04-25 20:20 | 24.77277 | 39.66148 | 5720 ft | 213 kts | 171° |
| 2026-04-25 20:20 | 24.75807 | 39.66461 | 5500 ft | 212 kts | 171° |
| 2026-04-25 20:21 | 24.74359 | 39.66769 | 5288 ft | 211 kts | 171° |
| 2026-04-25 20:21 | 24.72924 | 39.67075 | 5074 ft | 210 kts | 171° |
| 2026-04-25 20:21 | 24.71479 | 39.67382 | 4855 ft | 207 kts | 171° |
| 2026-04-25 20:21 | 24.70103 | 39.67677 | 4633 ft | 198 kts | 171° |
| 2026-04-25 20:22 | 24.68777 | 39.67959 | 4388 ft | 190 kts | 171° |
| 2026-04-25 20:22 | 24.68339 | 39.68052 | 4302 ft | 187 kts | 171° |
| 2026-04-25 20:22 | 24.66310 | 39.68504 | 3815 ft | 171 kts | 171° |
| 2026-04-25 20:22 | 24.65164 | 39.68782 | 3558 ft | 165 kts | 170° |
| 2026-04-25 20:23 | 24.64040 | 39.68999 | 3355 ft | 164 kts | 171° |
| 2026-04-25 20:23 | 24.62912 | 39.69193 | 3122 ft | 164 kts | 170° |
| 2026-04-25 20:23 | 24.61780 | 39.69406 | 2913 ft | 163 kts | 168° |
| 2026-04-25 20:23 | 24.60675 | 39.69682 | 2718 ft | 163 kts | 171° |
| 2026-04-25 20:24 | 24.59578 | 39.69949 | 2560 ft | 161 kts | 171° |
| 2026-04-25 20:24 | 24.58481 | 39.70178 | 2370 ft | 160 kts | 172° |
| 2026-04-25 20:24 | 24.57386 | 39.70367 | 2164 ft | 158 kts | 165° |
| 2026-04-25 20:24 | 24.56421 | 39.70587 | 2144 ft | 109 kts | 168° |
| 2026-04-25 20:25 | 24.55878 | 39.70706 | 2142 ft | 61 kts | 169° |
| 2026-04-25 20:25 | 24.55475 | 39.70795 | 2130 ft | 50 kts | 168° |
| 2026-04-25 20:25 | 24.55261 | 39.70919 | 2120 ft | 21 kts | 142° |
| 2026-04-25 20:25 | 24.55224 | 39.70969 | 2119 ft | 4 kts | 112° |
| 2026-04-25 20:26 | 24.55218 | 39.71010 | 2119 ft | 5 kts | 88° |
| 2026-04-25 20:26 | 24.55224 | 39.71061 | 2121 ft | 7 kts | 81° |
| 2026-04-25 20:26 | 24.55233 | 39.71118 | 2122 ft | 7 kts | 80° |
| 2026-04-25 20:26 | 24.55242 | 39.71170 | 2125 ft | 6 kts | 71° |
| 2026-04-25 20:27 | 24.55263 | 39.71196 | 2127 ft | 3 kts | 29° |
| 2026-04-25 20:27 | 24.55273 | 39.71202 | 2128 ft | 0 kts | 30° |
| 2026-04-25 20:27 | 24.55285 | 39.71212 | 2130 ft | 6 kts | 46° |
| 2026-04-25 20:27 | 24.55306 | 39.71263 | 2133 ft | 6 kts | 73° |
| 2026-04-25 20:28 | 24.55314 | 39.71299 | 2135 ft | 0 kts | 78° |